sensor_id;sensor_type;location;lat;lon;timestamp;P1;P2;P0
77481;PMS5003;66582;43.004;-75.010;2023-07-13T00:02:15;24;22;
77481;PMS5003;66582;43.004;-75.010;2023-07-13T00:04:41;22;21;
77481;PMS5003;66582;43.004;-75.010;2023-07-13T00:07:06;15;15;
77481;PMS5003;66582;43.004;-75.010;2023-07-13T00:09:31;18;18;
77481;PMS5003;66582;43.004;-75.010;2023-07-13T00:11:57;21;21;
77481;PMS5003;66582;43.004;-75.010;2023-07-13T00:14:23;18;18;
77481;PMS5003;66582;43.004;-75.010;2023-07-13T00:16:48;20;19;
77481;PMS5003;66582;43.004;-75.010;2023-07-13T00:19:13;18;18;
77481;PMS5003;66582;43.004;-75.010;2023-07-13T00:21:38;21;19;
77481;PMS5003;66582;43.004;-75.010;2023-07-13T00:24:04;20;19;
77481;PMS5003;66582;43.004;-75.010;2023-07-13T00:26:30;23;20;
77481;PMS5003;66582;43.004;-75.010;2023-07-13T00:28:55;21;21;
77481;PMS5003;66582;43.004;-75.010;2023-07-13T00:31:20;21;21;
77481;PMS5003;66582;43.004;-75.010;2023-07-13T00:33:46;17;17;
77481;PMS5003;66582;43.004;-75.010;2023-07-13T00:36:12;18;17;
77481;PMS5003;66582;43.004;-75.010;2023-07-13T00:38:37;20;20;
77481;PMS5003;66582;43.004;-75.010;2023-07-13T00:41:03;20;20;
77481;PMS5003;66582;43.004;-75.010;2023-07-13T00:43:28;19;18;
77481;PMS5003;66582;43.004;-75.010;2023-07-13T00:48:20;16;16;
77481;PMS5003;66582;43.004;-75.010;2023-07-13T00:50:46;19;19;
77481;PMS5003;66582;43.004;-75.010;2023-07-13T00:53:10;17;16;
77481;PMS5003;66582;43.004;-75.010;2023-07-13T00:55:36;22;19;
77481;PMS5003;66582;43.004;-75.010;2023-07-13T00:58:01;19;19;
77481;PMS5003;66582;43.004;-75.010;2023-07-13T01:00:27;21;20;
77481;PMS5003;66582;43.004;-75.010;2023-07-13T01:02:52;17;17;
77481;PMS5003;66582;43.004;-75.010;2023-07-13T01:05:19;21;20;
77481;PMS5003;66582;43.004;-75.010;2023-07-13T01:07:44;23;23;
77481;PMS5003;66582;43.004;-75.010;2023-07-13T01:10:10;23;22;
77481;PMS5003;66582;43.004;-75.010;2023-07-13T01:12:35;22;22;
77481;PMS5003;66582;43.004;-75.010;2023-07-13T01:15:00;26;24;
77481;PMS5003;66582;43.004;-75.010;2023-07-13T01:17:26;28;27;
77481;PMS5003;66582;43.004;-75.010;2023-07-13T01:19:51;34;31;
77481;PMS5003;66582;43.004;-75.010;2023-07-13T01:22:17;20;19;
77481;PMS5003;66582;43.004;-75.010;2023-07-13T01:24:42;22;20;
77481;PMS5003;66582;43.004;-75.010;2023-07-13T01:27:08;20;20;
77481;PMS5003;66582;43.004;-75.010;2023-07-13T01:29:35;19;18;
77481;PMS5003;66582;43.004;-75.010;2023-07-13T01:31:59;21;21;
77481;PMS5003;66582;43.004;-75.010;2023-07-13T01:34:24;23;21;
77481;PMS5003;66582;43.004;-75.010;2023-07-13T01:36:50;18;18;
77481;PMS5003;66582;43.004;-75.010;2023-07-13T01:39:15;22;21;
77481;PMS5003;66582;43.004;-75.010;2023-07-13T01:41:41;20;20;
77481;PMS5003;66582;43.004;-75.010;2023-07-13T01:44:06;23;22;
77481;PMS5003;66582;43.004;-75.010;2023-07-13T01:46:31;17;17;
77481;PMS5003;66582;43.004;-75.010;2023-07-13T01:48:57;24;23;
77481;PMS5003;66582;43.004;-75.010;2023-07-13T01:51:22;22;21;
77481;PMS5003;66582;43.004;-75.010;2023-07-13T01:53:48;19;18;
77481;PMS5003;66582;43.004;-75.010;2023-07-13T01:56:13;20;18;
77481;PMS5003;66582;43.004;-75.010;2023-07-13T01:58:39;20;19;
77481;PMS5003;66582;43.004;-75.010;2023-07-13T02:01:04;18;18;
77481;PMS5003;66582;43.004;-75.010;2023-07-13T02:03:30;23;22;
77481;PMS5003;66582;43.004;-75.010;2023-07-13T02:05:55;21;19;
77481;PMS5003;66582;43.004;-75.010;2023-07-13T02:08:20;21;20;
77481;PMS5003;66582;43.004;-75.010;2023-07-13T02:10:46;20;19;
77481;PMS5003;66582;43.004;-75.010;2023-07-13T02:13:12;19;19;
77481;PMS5003;66582;43.004;-75.010;2023-07-13T02:15:38;20;20;
77481;PMS5003;66582;43.004;-75.010;2023-07-13T02:18:02;22;21;
77481;PMS5003;66582;43.004;-75.010;2023-07-13T02:20:28;20;20;
77481;PMS5003;66582;43.004;-75.010;2023-07-13T02:22:53;22;21;
77481;PMS5003;66582;43.004;-75.010;2023-07-13T02:25:19;20;19;
77481;PMS5003;66582;43.004;-75.010;2023-07-13T02:27:44;23;23;
77481;PMS5003;66582;43.004;-75.010;2023-07-13T02:30:10;21;20;
77481;PMS5003;66582;43.004;-75.010;2023-07-13T02:32:35;20;19;
77481;PMS5003;66582;43.004;-75.010;2023-07-13T02:35:00;23;23;
77481;PMS5003;66582;43.004;-75.010;2023-07-13T02:37:26;22;22;
77481;PMS5003;66582;43.004;-75.010;2023-07-13T02:39:52;22;22;
77481;PMS5003;66582;43.004;-75.010;2023-07-13T02:42:17;21;21;
77481;PMS5003;66582;43.004;-75.010;2023-07-13T02:44:43;22;21;
77481;PMS5003;66582;43.004;-75.010;2023-07-13T02:47:08;24;23;
77481;PMS5003;66582;43.004;-75.010;2023-07-13T02:49:33;20;19;
77481;PMS5003;66582;43.004;-75.010;2023-07-13T02:51:58;25;25;
77481;PMS5003;66582;43.004;-75.010;2023-07-13T02:54:24;25;25;
77481;PMS5003;66582;43.004;-75.010;2023-07-13T02:56:50;29;26;
77481;PMS5003;66582;43.004;-75.010;2023-07-13T02:59:15;28;25;
77481;PMS5003;66582;43.004;-75.010;2023-07-13T03:01:41;19;19;
77481;PMS5003;66582;43.004;-75.010;2023-07-13T03:04:06;23;23;
77481;PMS5003;66582;43.004;-75.010;2023-07-13T03:06:32;25;25;
77481;PMS5003;66582;43.004;-75.010;2023-07-13T03:08:58;21;21;
77481;PMS5003;66582;43.004;-75.010;2023-07-13T03:11:23;22;22;
77481;PMS5003;66582;43.004;-75.010;2023-07-13T03:13:49;21;21;
77481;PMS5003;66582;43.004;-75.010;2023-07-13T03:16:15;22;21;
77481;PMS5003;66582;43.004;-75.010;2023-07-13T03:18:40;24;24;
77481;PMS5003;66582;43.004;-75.010;2023-07-13T03:21:05;21;20;
77481;PMS5003;66582;43.004;-75.010;2023-07-13T03:23:31;21;21;
77481;PMS5003;66582;43.004;-75.010;2023-07-13T03:26:01;24;24;
77481;PMS5003;66582;43.004;-75.010;2023-07-13T03:28:21;21;20;
77481;PMS5003;66582;43.004;-75.010;2023-07-13T03:30:46;24;23;
77481;PMS5003;66582;43.004;-75.010;2023-07-13T03:33:11;21;20;
77481;PMS5003;66582;43.004;-75.010;2023-07-13T03:35:39;23;23;
77481;PMS5003;66582;43.004;-75.010;2023-07-13T03:38:02;23;22;
77481;PMS5003;66582;43.004;-75.010;2023-07-13T03:40:28;24;23;
77481;PMS5003;66582;43.004;-75.010;2023-07-13T03:42:53;23;21;
77481;PMS5003;66582;43.004;-75.010;2023-07-13T03:45:19;21;21;
77481;PMS5003;66582;43.004;-75.010;2023-07-13T03:47:44;20;19;
77481;PMS5003;66582;43.004;-75.010;2023-07-13T03:50:10;21;19;
77481;PMS5003;66582;43.004;-75.010;2023-07-13T03:52:35;21;20;
77481;PMS5003;66582;43.004;-75.010;2023-07-13T03:55:00;21;20;
77481;PMS5003;66582;43.004;-75.010;2023-07-13T03:57:26;20;20;
77481;PMS5003;66582;43.004;-75.010;2023-07-13T03:59:50;22;21;
77481;PMS5003;66582;43.004;-75.010;2023-07-13T04:02:17;26;23;
77481;PMS5003;66582;43.004;-75.010;2023-07-13T04:04:41;21;20;
77481;PMS5003;66582;43.004;-75.010;2023-07-13T04:07:07;22;20;
77481;PMS5003;66582;43.004;-75.010;2023-07-13T04:09:32;20;20;
77481;PMS5003;66582;43.004;-75.010;2023-07-13T04:11:58;21;20;
77481;PMS5003;66582;43.004;-75.010;2023-07-13T04:14:23;19;19;
77481;PMS5003;66582;43.004;-75.010;2023-07-13T04:16:50;22;22;
77481;PMS5003;66582;43.004;-75.010;2023-07-13T04:19:14;21;20;
77481;PMS5003;66582;43.004;-75.010;2023-07-13T04:21:40;20;20;
77481;PMS5003;66582;43.004;-75.010;2023-07-13T04:24:05;23;20;
77481;PMS5003;66582;43.004;-75.010;2023-07-13T04:26:30;19;18;
77481;PMS5003;66582;43.004;-75.010;2023-07-13T04:28:57;21;21;
77481;PMS5003;66582;43.004;-75.010;2023-07-13T04:31:21;21;21;
77481;PMS5003;66582;43.004;-75.010;2023-07-13T04:33:47;22;22;
77481;PMS5003;66582;43.004;-75.010;2023-07-13T04:36:12;19;18;
77481;PMS5003;66582;43.004;-75.010;2023-07-13T04:38:38;17;16;
77481;PMS5003;66582;43.004;-75.010;2023-07-13T04:41:04;22;21;
77481;PMS5003;66582;43.004;-75.010;2023-07-13T04:43:29;18;17;
77481;PMS5003;66582;43.004;-75.010;2023-07-13T04:45:54;22;22;
77481;PMS5003;66582;43.004;-75.010;2023-07-13T04:48:20;20;18;
77481;PMS5003;66582;43.004;-75.010;2023-07-13T04:50:46;21;20;
77481;PMS5003;66582;43.004;-75.010;2023-07-13T04:53:11;20;20;
77481;PMS5003;66582;43.004;-75.010;2023-07-13T04:55:36;17;17;
77481;PMS5003;66582;43.004;-75.010;2023-07-13T04:58:01;21;21;
77481;PMS5003;66582;43.004;-75.010;2023-07-13T05:00:27;25;22;
77481;PMS5003;66582;43.004;-75.010;2023-07-13T05:02:53;21;20;
77481;PMS5003;66582;43.004;-75.010;2023-07-13T05:05:18;20;18;
77481;PMS5003;66582;43.004;-75.010;2023-07-13T05:07:43;20;19;
77481;PMS5003;66582;43.004;-75.010;2023-07-13T05:10:09;20;19;
77481;PMS5003;66582;43.004;-75.010;2023-07-13T05:12:34;19;18;
77481;PMS5003;66582;43.004;-75.010;2023-07-13T05:15:00;17;17;
77481;PMS5003;66582;43.004;-75.010;2023-07-13T05:17:26;20;19;
77481;PMS5003;66582;43.004;-75.010;2023-07-13T05:19:51;17;17;
77481;PMS5003;66582;43.004;-75.010;2023-07-13T05:22:16;21;21;
77481;PMS5003;66582;43.004;-75.010;2023-07-13T05:24:42;18;18;
77481;PMS5003;66582;43.004;-75.010;2023-07-13T05:27:08;20;19;
77481;PMS5003;66582;43.004;-75.010;2023-07-13T05:29:33;21;20;
77481;PMS5003;66582;43.004;-75.010;2023-07-13T05:31:58;16;15;
77481;PMS5003;66582;43.004;-75.010;2023-07-13T05:34:23;17;17;
77481;PMS5003;66582;43.004;-75.010;2023-07-13T05:36:49;19;18;
77481;PMS5003;66582;43.004;-75.010;2023-07-13T05:39:15;20;19;
77481;PMS5003;66582;43.004;-75.010;2023-07-13T05:41:40;21;20;
77481;PMS5003;66582;43.004;-75.010;2023-07-13T05:44:06;21;19;
77481;PMS5003;66582;43.004;-75.010;2023-07-13T05:46:31;18;18;
77481;PMS5003;66582;43.004;-75.010;2023-07-13T05:48:57;17;17;
77481;PMS5003;66582;43.004;-75.010;2023-07-13T05:51:23;19;18;
77481;PMS5003;66582;43.004;-75.010;2023-07-13T05:53:49;19;18;
77481;PMS5003;66582;43.004;-75.010;2023-07-13T05:56:14;16;16;
77481;PMS5003;66582;43.004;-75.010;2023-07-13T05:58:40;18;16;
77481;PMS5003;66582;43.004;-75.010;2023-07-13T06:01:07;17;16;
77481;PMS5003;66582;43.004;-75.010;2023-07-13T06:03:31;16;15;
77481;PMS5003;66582;43.004;-75.010;2023-07-13T06:05:56;17;17;
77481;PMS5003;66582;43.004;-75.010;2023-07-13T06:08:21;16;16;
77481;PMS5003;66582;43.004;-75.010;2023-07-13T06:10:47;17;16;
77481;PMS5003;66582;43.004;-75.010;2023-07-13T06:13:12;19;19;
77481;PMS5003;66582;43.004;-75.010;2023-07-13T06:15:37;18;18;
77481;PMS5003;66582;43.004;-75.010;2023-07-13T06:18:03;17;17;
77481;PMS5003;66582;43.004;-75.010;2023-07-13T06:20:28;18;18;
77481;PMS5003;66582;43.004;-75.010;2023-07-13T06:22:54;20;20;
77481;PMS5003;66582;43.004;-75.010;2023-07-13T06:25:19;19;19;
77481;PMS5003;66582;43.004;-75.010;2023-07-13T06:27:45;19;18;
77481;PMS5003;66582;43.004;-75.010;2023-07-13T06:30:11;19;18;
77481;PMS5003;66582;43.004;-75.010;2023-07-13T06:32:35;19;18;
77481;PMS5003;66582;43.004;-75.010;2023-07-13T06:35:01;18;17;
77481;PMS5003;66582;43.004;-75.010;2023-07-13T06:37:27;18;18;
77481;PMS5003;66582;43.004;-75.010;2023-07-13T06:39:52;19;17;
77481;PMS5003;66582;43.004;-75.010;2023-07-13T06:42:18;16;16;
77481;PMS5003;66582;43.004;-75.010;2023-07-13T06:44:43;16;16;
77481;PMS5003;66582;43.004;-75.010;2023-07-13T06:47:09;22;21;
77481;PMS5003;66582;43.004;-75.010;2023-07-13T06:49:34;20;19;
77481;PMS5003;66582;43.004;-75.010;2023-07-13T06:51:59;17;17;
77481;PMS5003;66582;43.004;-75.010;2023-07-13T06:54:25;21;21;
77481;PMS5003;66582;43.004;-75.010;2023-07-13T06:56:50;22;21;
77481;PMS5003;66582;43.004;-75.010;2023-07-13T06:59:16;21;21;
77481;PMS5003;66582;43.004;-75.010;2023-07-13T07:01:41;21;18;
77481;PMS5003;66582;43.004;-75.010;2023-07-13T07:04:07;17;16;
77481;PMS5003;66582;43.004;-75.010;2023-07-13T07:06:33;21;21;
77481;PMS5003;66582;43.004;-75.010;2023-07-13T07:08:58;19;18;
77481;PMS5003;66582;43.004;-75.010;2023-07-13T07:11:24;18;18;
77481;PMS5003;66582;43.004;-75.010;2023-07-13T07:13:49;20;18;
77481;PMS5003;66582;43.004;-75.010;2023-07-13T07:16:15;22;21;
77481;PMS5003;66582;43.004;-75.010;2023-07-13T07:18:41;18;18;
77481;PMS5003;66582;43.004;-75.010;2023-07-13T07:21:05;18;17;
77481;PMS5003;66582;43.004;-75.010;2023-07-13T07:23:31;18;17;
77481;PMS5003;66582;43.004;-75.010;2023-07-13T07:25:56;18;17;
77481;PMS5003;66582;43.004;-75.010;2023-07-13T07:28:22;18;17;
77481;PMS5003;66582;43.004;-75.010;2023-07-13T07:30:48;19;18;
77481;PMS5003;66582;43.004;-75.010;2023-07-13T07:33:13;17;17;
77481;PMS5003;66582;43.004;-75.010;2023-07-13T07:35:38;19;18;
77481;PMS5003;66582;43.004;-75.010;2023-07-13T07:38:03;19;18;
77481;PMS5003;66582;43.004;-75.010;2023-07-13T07:40:29;19;19;
77481;PMS5003;66582;43.004;-75.010;2023-07-13T07:42:54;20;19;
77481;PMS5003;66582;43.004;-75.010;2023-07-13T07:45:20;17;17;
77481;PMS5003;66582;43.004;-75.010;2023-07-13T07:47:46;18;17;
77481;PMS5003;66582;43.004;-75.010;2023-07-13T07:50:11;21;19;
77481;PMS5003;66582;43.004;-75.010;2023-07-13T07:52:36;18;17;
77481;PMS5003;66582;43.004;-75.010;2023-07-13T07:55:03;17;17;
77481;PMS5003;66582;43.004;-75.010;2023-07-13T07:57:28;25;22;
77481;PMS5003;66582;43.004;-75.010;2023-07-13T07:59:54;21;20;
77481;PMS5003;66582;43.004;-75.010;2023-07-13T08:02:19;20;19;
77481;PMS5003;66582;43.004;-75.010;2023-07-13T08:04:45;19;18;
77481;PMS5003;66582;43.004;-75.010;2023-07-13T08:07:10;22;21;
77481;PMS5003;66582;43.004;-75.010;2023-07-13T08:09:35;20;19;
77481;PMS5003;66582;43.004;-75.010;2023-07-13T08:12:00;18;18;
77481;PMS5003;66582;43.004;-75.010;2023-07-13T08:14:26;18;18;
77481;PMS5003;66582;43.004;-75.010;2023-07-13T08:16:51;23;22;
77481;PMS5003;66582;43.004;-75.010;2023-07-13T08:19:16;20;20;
77481;PMS5003;66582;43.004;-75.010;2023-07-13T08:21:42;18;17;
77481;PMS5003;66582;43.004;-75.010;2023-07-13T08:24:07;18;18;
77481;PMS5003;66582;43.004;-75.010;2023-07-13T08:26:32;21;20;
77481;PMS5003;66582;43.004;-75.010;2023-07-13T08:28:57;22;21;
77481;PMS5003;66582;43.004;-75.010;2023-07-13T08:31:23;21;21;
77481;PMS5003;66582;43.004;-75.010;2023-07-13T08:33:48;18;17;
77481;PMS5003;66582;43.004;-75.010;2023-07-13T08:36:14;25;23;
77481;PMS5003;66582;43.004;-75.010;2023-07-13T08:38:40;21;20;
77481;PMS5003;66582;43.004;-75.010;2023-07-13T08:41:11;26;25;
77481;PMS5003;66582;43.004;-75.010;2023-07-13T08:43:33;24;22;
77481;PMS5003;66582;43.004;-75.010;2023-07-13T08:46:01;19;18;
77481;PMS5003;66582;43.004;-75.010;2023-07-13T08:48:23;22;20;
77481;PMS5003;66582;43.004;-75.010;2023-07-13T08:50:47;21;18;
77481;PMS5003;66582;43.004;-75.010;2023-07-13T08:53:12;18;17;
77481;PMS5003;66582;43.004;-75.010;2023-07-13T08:55:37;19;19;
77481;PMS5003;66582;43.004;-75.010;2023-07-13T08:58:05;19;18;
77481;PMS5003;66582;43.004;-75.010;2023-07-13T09:00:43;18;18;
77481;PMS5003;66582;43.004;-75.010;2023-07-13T09:02:56;20;19;
77481;PMS5003;66582;43.004;-75.010;2023-07-13T09:05:22;19;18;
77481;PMS5003;66582;43.004;-75.010;2023-07-13T09:07:50;19;16;
77481;PMS5003;66582;43.004;-75.010;2023-07-13T09:10:14;21;20;
77481;PMS5003;66582;43.004;-75.010;2023-07-13T09:12:43;17;17;
77481;PMS5003;66582;43.004;-75.010;2023-07-13T09:15:01;20;18;
77481;PMS5003;66582;43.004;-75.010;2023-07-13T09:17:27;24;23;
77481;PMS5003;66582;43.004;-75.010;2023-07-13T09:19:54;19;19;
77481;PMS5003;66582;43.004;-75.010;2023-07-13T09:22:18;23;21;
77481;PMS5003;66582;43.004;-75.010;2023-07-13T09:24:47;19;19;
77481;PMS5003;66582;43.004;-75.010;2023-07-13T09:27:11;25;25;
77481;PMS5003;66582;43.004;-75.010;2023-07-13T09:29:33;18;18;
77481;PMS5003;66582;43.004;-75.010;2023-07-13T09:32:00;21;20;
77481;PMS5003;66582;43.004;-75.010;2023-07-13T09:34:25;22;21;
77481;PMS5003;66582;43.004;-75.010;2023-07-13T09:36:49;24;24;
77481;PMS5003;66582;43.004;-75.010;2023-07-13T09:39:18;24;22;
77481;PMS5003;66582;43.004;-75.010;2023-07-13T09:41:44;22;21;
77481;PMS5003;66582;43.004;-75.010;2023-07-13T09:44:08;25;24;
77481;PMS5003;66582;43.004;-75.010;2023-07-13T09:46:31;24;23;
77481;PMS5003;66582;43.004;-75.010;2023-07-13T09:48:57;20;20;
77481;PMS5003;66582;43.004;-75.010;2023-07-13T09:51:22;20;20;
77481;PMS5003;66582;43.004;-75.010;2023-07-13T09:53:47;21;20;
77481;PMS5003;66582;43.004;-75.010;2023-07-13T09:56:19;22;20;
77481;PMS5003;66582;43.004;-75.010;2023-07-13T09:58:38;20;19;
77481;PMS5003;66582;43.004;-75.010;2023-07-13T10:01:04;17;16;
77481;PMS5003;66582;43.004;-75.010;2023-07-13T10:03:29;21;21;
77481;PMS5003;66582;43.004;-75.010;2023-07-13T10:05:54;20;20;
77481;PMS5003;66582;43.004;-75.010;2023-07-13T10:08:21;21;20;
77481;PMS5003;66582;43.004;-75.010;2023-07-13T10:10:44;22;21;
77481;PMS5003;66582;43.004;-75.010;2023-07-13T10:15:36;21;21;
77481;PMS5003;66582;43.004;-75.010;2023-07-13T10:18:01;27;25;
77481;PMS5003;66582;43.004;-75.010;2023-07-13T10:20:27;18;18;
77481;PMS5003;66582;43.004;-75.010;2023-07-13T10:22:54;20;20;
77481;PMS5003;66582;43.004;-75.010;2023-07-13T10:25:19;22;22;
77481;PMS5003;66582;43.004;-75.010;2023-07-13T10:27:45;24;22;
77481;PMS5003;66582;43.004;-75.010;2023-07-13T10:30:13;23;21;
77481;PMS5003;66582;43.004;-75.010;2023-07-13T10:32:35;21;21;
77481;PMS5003;66582;43.004;-75.010;2023-07-13T10:35:00;21;21;
77481;PMS5003;66582;43.004;-75.010;2023-07-13T10:37:26;23;21;
77481;PMS5003;66582;43.004;-75.010;2023-07-13T10:39:51;20;19;
77481;PMS5003;66582;43.004;-75.010;2023-07-13T10:42:18;25;24;
77481;PMS5003;66582;43.004;-75.010;2023-07-13T10:44:42;22;21;
77481;PMS5003;66582;43.004;-75.010;2023-07-13T10:47:08;25;23;
77481;PMS5003;66582;43.004;-75.010;2023-07-13T10:49:34;24;22;
77481;PMS5003;66582;43.004;-75.010;2023-07-13T10:51:59;27;25;
77481;PMS5003;66582;43.004;-75.010;2023-07-13T10:54:27;23;22;
77481;PMS5003;66582;43.004;-75.010;2023-07-13T10:56:50;21;21;
77481;PMS5003;66582;43.004;-75.010;2023-07-13T10:59:16;21;21;
77481;PMS5003;66582;43.004;-75.010;2023-07-13T11:01:46;24;22;
77481;PMS5003;66582;43.004;-75.010;2023-07-13T11:04:08;23;22;
77481;PMS5003;66582;43.004;-75.010;2023-07-13T11:06:33;23;23;
77481;PMS5003;66582;43.004;-75.010;2023-07-13T11:08:58;25;24;
77481;PMS5003;66582;43.004;-75.010;2023-07-13T11:13:57;28;26;
77481;PMS5003;66582;43.004;-75.010;2023-07-13T11:18:39;30;28;
77481;PMS5003;66582;43.004;-75.010;2023-07-13T11:21:13;27;27;
77481;PMS5003;66582;43.004;-75.010;2023-07-13T11:23:30;29;28;
77481;PMS5003;66582;43.004;-75.010;2023-07-13T11:25:56;27;27;
77481;PMS5003;66582;43.004;-75.010;2023-07-13T11:28:23;27;26;
77481;PMS5003;66582;43.004;-75.010;2023-07-13T11:30:48;30;29;
77481;PMS5003;66582;43.004;-75.010;2023-07-13T11:33:14;31;29;
77481;PMS5003;66582;43.004;-75.010;2023-07-13T11:35:38;28;27;
77481;PMS5003;66582;43.004;-75.010;2023-07-13T11:38:03;29;28;
77481;PMS5003;66582;43.004;-75.010;2023-07-13T11:40:29;23;23;
77481;PMS5003;66582;43.004;-75.010;2023-07-13T11:42:58;24;24;
77481;PMS5003;66582;43.004;-75.010;2023-07-13T11:45:20;26;25;
77481;PMS5003;66582;43.004;-75.010;2023-07-13T11:47:45;26;26;
77481;PMS5003;66582;43.004;-75.010;2023-07-13T11:52:36;27;26;
77481;PMS5003;66582;43.004;-75.010;2023-07-13T11:55:02;26;25;
77481;PMS5003;66582;43.004;-75.010;2023-07-13T11:57:28;29;27;
77481;PMS5003;66582;43.004;-75.010;2023-07-13T11:59:52;31;29;
77481;PMS5003;66582;43.004;-75.010;2023-07-13T12:02:21;28;27;
77481;PMS5003;66582;43.004;-75.010;2023-07-13T12:04:43;26;26;
77481;PMS5003;66582;43.004;-75.010;2023-07-13T12:07:14;25;24;
77481;PMS5003;66582;43.004;-75.010;2023-07-13T12:09:35;22;21;
77481;PMS5003;66582;43.004;-75.010;2023-07-13T12:12:00;23;23;
77481;PMS5003;66582;43.004;-75.010;2023-07-13T12:14:25;26;25;
77481;PMS5003;66582;43.004;-75.010;2023-07-13T12:16:51;24;24;
77481;PMS5003;66582;43.004;-75.010;2023-07-13T12:19:17;26;25;
77481;PMS5003;66582;43.004;-75.010;2023-07-13T12:21:41;29;28;
77481;PMS5003;66582;43.004;-75.010;2023-07-13T12:26:33;25;24;
77481;PMS5003;66582;43.004;-75.010;2023-07-13T12:28:59;26;26;
77481;PMS5003;66582;43.004;-75.010;2023-07-13T12:31:25;27;25;
77481;PMS5003;66582;43.004;-75.010;2023-07-13T12:36:15;27;26;
77481;PMS5003;66582;43.004;-75.010;2023-07-13T12:38:41;22;22;
77481;PMS5003;66582;43.004;-75.010;2023-07-13T12:41:07;24;23;
77481;PMS5003;66582;43.004;-75.010;2023-07-13T12:43:33;24;24;
77481;PMS5003;66582;43.004;-75.010;2023-07-13T12:45:59;23;23;
77481;PMS5003;66582;43.004;-75.010;2023-07-13T12:48:24;23;23;
77481;PMS5003;66582;43.004;-75.010;2023-07-13T12:50:49;22;22;
77481;PMS5003;66582;43.004;-75.010;2023-07-13T12:53:15;24;23;
77481;PMS5003;66582;43.004;-75.010;2023-07-13T12:55:41;23;23;
77481;PMS5003;66582;43.004;-75.010;2023-07-13T12:58:06;27;27;
77481;PMS5003;66582;43.004;-75.010;2023-07-13T13:00:31;26;25;
77481;PMS5003;66582;43.004;-75.010;2023-07-13T13:02:57;24;22;
77481;PMS5003;66582;43.004;-75.010;2023-07-13T13:05:24;23;22;
77481;PMS5003;66582;43.004;-75.010;2023-07-13T13:07:47;25;24;
77481;PMS5003;66582;43.004;-75.010;2023-07-13T13:10:13;27;25;
77481;PMS5003;66582;43.004;-75.010;2023-07-13T13:12:39;25;25;
77481;PMS5003;66582;43.004;-75.010;2023-07-13T13:15:05;25;24;
77481;PMS5003;66582;43.004;-75.010;2023-07-13T13:17:30;29;28;
77481;PMS5003;66582;43.004;-75.010;2023-07-13T13:19:56;27;27;
77481;PMS5003;66582;43.004;-75.010;2023-07-13T13:22:21;25;24;
77481;PMS5003;66582;43.004;-75.010;2023-07-13T13:24:47;28;28;
77481;PMS5003;66582;43.004;-75.010;2023-07-13T13:27:14;25;25;
77481;PMS5003;66582;43.004;-75.010;2023-07-13T13:29:37;23;23;
77481;PMS5003;66582;43.004;-75.010;2023-07-13T13:32:04;28;26;
77481;PMS5003;66582;43.004;-75.010;2023-07-13T13:34:29;29;28;
77481;PMS5003;66582;43.004;-75.010;2023-07-13T13:36:55;27;26;
77481;PMS5003;66582;43.004;-75.010;2023-07-13T13:39:22;25;23;
77481;PMS5003;66582;43.004;-75.010;2023-07-13T13:41:47;30;28;
77481;PMS5003;66582;43.004;-75.010;2023-07-13T13:44:13;28;28;
77481;PMS5003;66582;43.004;-75.010;2023-07-13T13:46:37;27;27;
77481;PMS5003;66582;43.004;-75.010;2023-07-13T13:49:03;26;26;
77481;PMS5003;66582;43.004;-75.010;2023-07-13T13:51:28;28;28;
77481;PMS5003;66582;43.004;-75.010;2023-07-13T13:53:54;27;26;
77481;PMS5003;66582;43.004;-75.010;2023-07-13T13:56:19;29;29;
77481;PMS5003;66582;43.004;-75.010;2023-07-13T13:58:45;31;28;
77481;PMS5003;66582;43.004;-75.010;2023-07-13T14:01:12;27;26;
77481;PMS5003;66582;43.004;-75.010;2023-07-13T14:03:36;26;25;
77481;PMS5003;66582;43.004;-75.010;2023-07-13T14:06:01;29;29;
77481;PMS5003;66582;43.004;-75.010;2023-07-13T14:08:28;30;30;
77481;PMS5003;66582;43.004;-75.010;2023-07-13T14:10:53;27;25;
77481;PMS5003;66582;43.004;-75.010;2023-07-13T14:13:18;24;24;
77481;PMS5003;66582;43.004;-75.010;2023-07-13T14:15:44;28;27;
77481;PMS5003;66582;43.004;-75.010;2023-07-13T14:18:09;30;29;
77481;PMS5003;66582;43.004;-75.010;2023-07-13T14:20:35;28;27;
77481;PMS5003;66582;43.004;-75.010;2023-07-13T14:23:00;28;27;
77481;PMS5003;66582;43.004;-75.010;2023-07-13T14:25:26;30;29;
77481;PMS5003;66582;43.004;-75.010;2023-07-13T14:27:53;28;27;
77481;PMS5003;66582;43.004;-75.010;2023-07-13T14:30:19;29;28;
77481;PMS5003;66582;43.004;-75.010;2023-07-13T14:32:43;29;29;
77481;PMS5003;66582;43.004;-75.010;2023-07-13T14:35:10;26;25;
77481;PMS5003;66582;43.004;-75.010;2023-07-13T14:37:34;29;27;
77481;PMS5003;66582;43.004;-75.010;2023-07-13T14:39:59;25;25;
77481;PMS5003;66582;43.004;-75.010;2023-07-13T14:42:25;29;27;
77481;PMS5003;66582;43.004;-75.010;2023-07-13T14:44:51;25;25;
77481;PMS5003;66582;43.004;-75.010;2023-07-13T14:47:17;28;27;
77481;PMS5003;66582;43.004;-75.010;2023-07-13T14:49:42;26;25;
77481;PMS5003;66582;43.004;-75.010;2023-07-13T14:52:10;22;22;
77481;PMS5003;66582;43.004;-75.010;2023-07-13T14:54:33;28;24;
77481;PMS5003;66582;43.004;-75.010;2023-07-13T14:56:59;28;28;
77481;PMS5003;66582;43.004;-75.010;2023-07-13T14:59:24;27;27;
77481;PMS5003;66582;43.004;-75.010;2023-07-13T15:01:49;26;25;
77481;PMS5003;66582;43.004;-75.010;2023-07-13T15:04:14;26;25;
77481;PMS5003;66582;43.004;-75.010;2023-07-13T15:09:08;27;27;
77481;PMS5003;66582;43.004;-75.010;2023-07-13T15:11:31;27;27;
77481;PMS5003;66582;43.004;-75.010;2023-07-13T15:13:57;29;28;
77481;PMS5003;66582;43.004;-75.010;2023-07-13T15:16:23;25;25;
77481;PMS5003;66582;43.004;-75.010;2023-07-13T15:18:48;26;25;
77481;PMS5003;66582;43.004;-75.010;2023-07-13T15:21:14;22;22;
77481;PMS5003;66582;43.004;-75.010;2023-07-13T15:23:38;23;22;
77481;PMS5003;66582;43.004;-75.010;2023-07-13T15:26:04;27;27;
77481;PMS5003;66582;43.004;-75.010;2023-07-13T15:28:29;27;27;
77481;PMS5003;66582;43.004;-75.010;2023-07-13T15:30:56;26;25;
77481;PMS5003;66582;43.004;-75.010;2023-07-13T15:33:21;25;25;
77481;PMS5003;66582;43.004;-75.010;2023-07-13T15:35:46;27;27;
77481;PMS5003;66582;43.004;-75.010;2023-07-13T15:38:14;26;25;
77481;PMS5003;66582;43.004;-75.010;2023-07-13T15:40:37;25;25;
77481;PMS5003;66582;43.004;-75.010;2023-07-13T15:43:04;26;25;
77481;PMS5003;66582;43.004;-75.010;2023-07-13T15:45:28;27;26;
77481;PMS5003;66582;43.004;-75.010;2023-07-13T15:47:52;23;23;
77481;PMS5003;66582;43.004;-75.010;2023-07-13T15:50:19;24;24;
77481;PMS5003;66582;43.004;-75.010;2023-07-13T15:52:43;25;25;
77481;PMS5003;66582;43.004;-75.010;2023-07-13T15:55:10;23;23;